createdAt,value
2018-11-03T00:01:08.501Z,31.40
2018-11-03T00:03:36.708Z,35.73
2018-11-03T00:06:04.876Z,36.83
2018-11-03T00:08:33.034Z,39.17
2018-11-03T00:11:01.210Z,36.00
2018-11-03T00:13:29.403Z,37.53
2018-11-03T00:15:57.374Z,43.43
2018-11-03T00:18:25.572Z,44.10
2018-11-03T00:20:53.707Z,35.83
2018-11-03T00:23:21.873Z,41.60
2018-11-03T00:25:50.035Z,47.20
2018-11-03T00:28:18.270Z,41.07
2018-11-03T00:30:46.458Z,39.40
2018-11-03T00:33:14.708Z,38.77
2018-11-03T00:35:42.951Z,35.73
2018-11-03T00:38:11.084Z,35.63
2018-11-03T00:40:39.346Z,41.20
2018-11-03T00:43:07.451Z,38.77
2018-11-03T00:45:35.754Z,43.07
2018-11-03T00:48:03.989Z,47.47
2018-11-03T00:50:32.150Z,44.30
2018-11-03T00:53:00.348Z,42.07
2018-11-03T00:55:28.529Z,53.00
2018-11-03T00:57:56.686Z,47.83
2018-11-03T01:00:24.898Z,56.13
2018-11-03T01:02:53.059Z,40.57
2018-11-03T01:05:21.231Z,42.07
2018-11-03T01:07:49.420Z,43.17
2018-11-03T01:10:17.679Z,42.83
2018-11-03T01:12:45.859Z,42.70
2018-11-03T01:15:16.066Z,51.60
2018-11-03T01:17:44.451Z,41.40
2018-11-03T01:20:13.944Z,43.53
2018-11-03T01:22:42.107Z,46.80
2018-11-03T01:25:10.592Z,46.27
2018-11-03T01:27:38.762Z,44.17
2018-11-03T01:30:10.530Z,47.10
2018-11-03T01:32:38.760Z,38.93
2018-11-03T01:35:07.584Z,39.33
2018-11-03T01:37:36.062Z,47.27
2018-11-03T01:40:04.451Z,41.80
2018-11-03T01:42:32.612Z,43.20
2018-11-03T01:45:00.811Z,54.00
2018-11-03T01:47:28.967Z,41.80
2018-11-03T01:49:57.131Z,46.20
2018-11-03T01:52:25.329Z,56.00
2018-11-03T01:54:53.486Z,54.77
2018-11-03T01:57:21.703Z,48.83
2018-11-03T01:59:49.884Z,47.73
2018-11-03T02:02:18.044Z,41.90
2018-11-03T02:04:46.216Z,43.27
2018-11-03T02:07:15.487Z,40.70
2018-11-03T02:09:43.663Z,45.53
2018-11-03T02:12:11.849Z,49.90
2018-11-03T02:14:40.067Z,43.73
2018-11-03T02:17:08.246Z,51.87
2018-11-03T02:19:36.880Z,50.63
2018-11-03T02:22:04.821Z,49.47
2018-11-03T02:24:33.013Z,49.33
2018-11-03T02:27:01.180Z,40.30
2018-11-03T02:29:29.395Z,52.33
2018-11-03T02:31:57.575Z,46.97
2018-11-03T02:34:25.756Z,43.23
2018-11-03T02:36:53.937Z,42.73
2018-11-03T02:39:22.107Z,49.00
2018-11-03T02:41:50.312Z,49.73
2018-11-03T02:44:18.483Z,48.20
2018-11-03T02:46:46.682Z,49.80
2018-11-03T02:49:14.859Z,51.67
2018-11-03T02:51:43.112Z,45.70
2018-11-03T02:54:11.272Z,51.27
2018-11-03T02:56:39.437Z,50.70
2018-11-03T02:59:07.595Z,50.53
2018-11-03T03:01:35.772Z,52.63
2018-11-03T03:04:03.940Z,56.00
2018-11-03T03:06:32.103Z,50.53
2018-11-03T03:09:00.340Z,55.83
2018-11-03T03:11:28.548Z,49.93
2018-11-03T03:13:56.718Z,49.67
2018-11-03T03:16:24.862Z,46.17
2018-11-03T03:18:53.029Z,48.50
2018-11-03T03:21:21.256Z,46.17
2018-11-03T03:23:49.455Z,43.27
2018-11-03T03:26:17.636Z,47.00
2018-11-03T03:28:45.941Z,48.30
2018-11-03T03:31:13.967Z,56.63
2018-11-03T03:33:42.152Z,50.27
2018-11-03T03:36:10.345Z,48.93
2018-11-03T03:38:38.577Z,62.17
2018-11-03T03:41:07.015Z,69.10
2018-11-03T03:43:35.176Z,59.97
2018-11-03T03:46:03.401Z,48.47
2018-11-03T03:48:31.636Z,51.17
2018-11-03T03:50:59.760Z,53.40
2018-11-03T03:53:27.973Z,53.70
2018-11-03T03:55:56.139Z,55.03
2018-11-03T03:58:24.340Z,53.40
2018-11-03T04:00:52.504Z,50.90
2018-11-03T04:03:20.690Z,54.23
2018-11-03T04:05:48.892Z,55.17
2018-11-03T04:08:17.101Z,56.83
2018-11-03T04:10:45.353Z,52.83
2018-11-03T04:13:13.507Z,53.87
2018-11-03T04:15:41.680Z,59.53
2018-11-03T04:18:09.851Z,62.13
2018-11-03T04:20:38.057Z,54.10
2018-11-03T04:23:06.240Z,54.23
2018-11-03T04:25:34.407Z,54.47
2018-11-03T04:28:02.579Z,49.37
2018-11-03T04:30:30.714Z,52.93
2018-11-03T04:32:58.855Z,52.00
2018-11-03T04:35:27.068Z,55.50
2018-11-03T04:37:55.241Z,57.70
2018-11-03T04:40:23.415Z,55.67
2018-11-03T04:42:51.565Z,54.50
2018-11-03T04:45:19.824Z,62.00
2018-11-03T04:47:47.938Z,63.27
2018-11-03T04:50:16.117Z,62.67
2018-11-03T04:52:44.274Z,55.83
2018-11-03T04:55:12.493Z,39.93
2018-11-03T04:57:46.194Z,44.10
2018-11-03T05:00:14.384Z,46.70
2018-11-03T05:02:42.545Z,43.17
2018-11-03T05:05:10.717Z,56.73
2018-11-03T05:07:38.891Z,54.63
2018-11-03T05:10:08.163Z,60.00
2018-11-03T05:12:36.795Z,57.73
2018-11-03T05:15:05.094Z,59.43
2018-11-03T05:17:33.296Z,39.80
2018-11-03T05:20:01.488Z,46.17
2018-11-03T05:22:29.695Z,53.00
2018-11-03T05:24:57.607Z,46.67
2018-11-03T05:27:25.573Z,45.33
2018-11-03T05:29:53.737Z,49.33
2018-11-03T05:32:22.033Z,49.43
2018-11-03T05:34:50.248Z,52.07
2018-11-03T05:37:18.411Z,54.57
2018-11-03T05:39:46.629Z,53.90
2018-11-03T05:42:14.977Z,49.47
2018-11-03T05:44:43.171Z,48.07
2018-11-03T05:47:11.535Z,49.83
2018-11-03T05:49:39.717Z,46.17
2018-11-03T05:52:07.892Z,43.13
2018-11-03T05:54:36.072Z,45.13
2018-11-03T05:57:04.331Z,54.40
2018-11-03T05:59:32.515Z,60.00
2018-11-03T06:02:00.738Z,58.00
2018-11-03T06:04:29.008Z,71.77
2018-11-03T06:06:57.267Z,58.83
2018-11-03T06:09:25.465Z,56.80
2018-11-03T06:11:53.643Z,53.77
2018-11-03T06:14:21.795Z,55.33
2018-11-03T06:16:49.992Z,55.77
2018-11-03T06:19:18.178Z,58.57
2018-11-03T06:21:46.341Z,53.50
2018-11-03T06:24:14.571Z,64.13
2018-11-03T06:26:42.777Z,55.80
2018-11-03T06:29:10.699Z,61.93
2018-11-03T06:31:38.692Z,58.70
2018-11-03T06:34:06.884Z,69.63
2018-11-03T06:36:35.092Z,64.70
2018-11-03T06:39:03.854Z,57.27
2018-11-03T06:41:31.939Z,64.70
2018-11-03T06:44:00.099Z,63.80
2018-11-03T06:46:28.319Z,59.93
2018-11-03T06:49:01.908Z,76.83
2018-11-03T06:51:30.081Z,57.13
2018-11-03T06:53:58.252Z,59.47
2018-11-03T06:56:26.490Z,65.70
2018-11-03T06:58:54.671Z,61.23
2018-11-03T07:01:22.847Z,65.60
2018-11-03T07:03:51.006Z,71.93
2018-11-03T07:06:19.240Z,70.27
2018-11-03T07:08:47.407Z,61.17
2018-11-03T07:11:15.604Z,74.60
2018-11-03T07:13:44.204Z,72.37
2018-11-03T07:16:12.362Z,80.20
2018-11-03T07:18:40.992Z,76.90
2018-11-03T07:21:09.198Z,80.77
2018-11-03T07:23:37.379Z,72.40
2018-11-03T07:26:06.088Z,72.93
2018-11-03T07:28:34.441Z,78.67
2018-11-03T07:31:02.708Z,77.53
2018-11-03T07:33:30.858Z,70.07
2018-11-03T07:35:59.159Z,76.90
2018-11-03T07:38:27.335Z,69.20
2018-11-03T07:40:55.594Z,74.03
2018-11-03T07:43:23.722Z,82.40
2018-11-03T07:45:53.459Z,70.30
2018-11-03T07:48:21.685Z,70.63
2018-11-03T07:50:49.827Z,67.57
2018-11-03T07:53:18.061Z,71.13
2018-11-03T07:55:46.224Z,69.63
2018-11-03T07:58:14.424Z,71.57
2018-11-03T08:00:42.659Z,75.60
2018-11-03T08:03:10.764Z,68.20
2018-11-03T08:05:38.949Z,79.97
2018-11-03T08:08:07.134Z,67.93
2018-11-03T08:10:35.360Z,64.33
2018-11-03T08:13:03.515Z,60.13
2018-11-03T08:15:31.746Z,61.23
2018-11-03T08:17:59.883Z,62.53
2018-11-03T08:20:28.043Z,63.40
2018-11-03T08:22:56.256Z,57.30
2018-11-03T08:25:24.456Z,60.27
2018-11-03T08:27:52.619Z,63.13
2018-11-03T08:30:20.804Z,59.43
2018-11-03T08:32:48.978Z,62.40
2018-11-03T08:35:17.166Z,67.80
2018-11-03T08:37:45.384Z,59.07
2018-11-03T08:40:13.580Z,64.60
2018-11-03T08:42:41.937Z,61.40
2018-11-03T08:45:10.722Z,59.90
2018-11-03T08:47:38.883Z,59.77
2018-11-03T08:50:08.664Z,64.40
2018-11-03T08:52:36.967Z,59.47
2018-11-03T08:55:06.426Z,64.33
2018-11-03T08:57:34.628Z,63.37
2018-11-03T09:00:03.015Z,67.40
2018-11-03T09:02:31.165Z,66.33
2018-11-03T09:04:59.336Z,73.33
2018-11-03T09:07:27.519Z,78.53
2018-11-03T09:09:55.727Z,73.57
2018-11-03T09:12:23.873Z,69.60
2018-11-03T09:14:52.080Z,75.27
2018-11-03T09:17:20.224Z,79.23
2018-11-03T09:19:48.416Z,74.30
2018-11-03T09:22:16.597Z,88.30
2018-11-03T09:24:44.829Z,74.70
2018-11-03T09:27:12.971Z,72.10
2018-11-03T09:29:41.134Z,67.90
2018-11-03T09:32:10.254Z,69.67
2018-11-03T09:34:38.451Z,68.77
2018-11-03T09:37:06.857Z,70.10
2018-11-03T09:39:35.057Z,66.77
2018-11-03T09:42:03.242Z,68.30
2018-11-03T09:44:31.396Z,73.00
2018-11-03T09:46:59.747Z,67.67
2018-11-03T09:49:27.939Z,62.03
2018-11-03T09:51:56.100Z,65.60
2018-11-03T09:54:24.381Z,64.57
2018-11-03T09:56:52.575Z,56.87
2018-11-03T09:59:20.748Z,57.83
2018-11-03T10:01:48.942Z,53.20
2018-11-03T10:04:17.157Z,58.73
2018-11-03T10:06:45.570Z,59.77
2018-11-03T10:09:13.689Z,56.43
2018-11-03T10:11:41.985Z,58.03
2018-11-03T10:14:10.167Z,52.10
2018-11-03T10:16:38.722Z,53.97
2018-11-03T10:19:06.887Z,62.40
2018-11-03T10:21:35.196Z,53.43
2018-11-03T10:24:03.376Z,67.10
2018-11-03T10:26:31.585Z,57.87
2018-11-03T10:28:59.735Z,52.83
2018-11-03T10:31:28.518Z,56.27
2018-11-03T10:33:56.925Z,51.13
2018-11-03T10:36:25.187Z,56.23
2018-11-03T10:38:53.615Z,103.67
2018-11-03T10:41:22.017Z,49.10
2018-11-03T10:43:50.292Z,47.00
2018-11-03T10:46:18.542Z,54.53
2018-11-03T10:48:46.725Z,53.70
2018-11-03T10:51:14.985Z,52.83
2018-11-03T10:53:43.297Z,46.30
2018-11-03T10:56:11.415Z,50.17
2018-11-03T10:58:39.575Z,50.40
2018-11-03T11:01:13.142Z,51.40
2018-11-03T11:03:46.879Z,47.27
2018-11-03T11:06:20.515Z,46.57
2018-11-03T11:08:54.033Z,47.67
2018-11-03T11:11:27.720Z,45.77
2018-11-03T11:13:55.962Z,49.30
2018-11-03T11:16:24.180Z,48.20
2018-11-03T11:18:52.255Z,54.57
2018-11-03T11:21:20.509Z,48.90
2018-11-03T11:23:48.675Z,44.90
2018-11-03T11:26:18.863Z,55.63
2018-11-03T11:28:47.063Z,51.90
2018-11-03T11:31:15.347Z,46.63
2018-11-03T11:33:43.414Z,49.17
2018-11-03T11:36:11.634Z,47.80
2018-11-03T11:38:39.934Z,45.83
2018-11-03T11:41:08.027Z,58.77
2018-11-03T11:43:36.202Z,40.67
2018-11-03T11:46:04.171Z,48.20
2018-11-03T11:51:07.099Z,41.97
2018-11-03T11:53:35.353Z,45.23
2018-11-03T11:56:03.601Z,39.63
2018-11-03T11:58:31.764Z,46.33
2018-11-03T12:00:59.932Z,38.03
2018-11-03T12:03:28.123Z,40.67
2018-11-03T12:05:56.394Z,35.73
2018-11-03T12:08:24.603Z,39.37
2018-11-03T12:10:52.778Z,38.83
2018-11-03T12:13:21.022Z,43.00
2018-11-03T12:15:49.172Z,35.87
2018-11-03T12:18:17.405Z,44.17
2018-11-03T12:20:45.720Z,36.23
2018-11-03T12:23:15.896Z,38.30
2018-11-03T12:25:44.096Z,34.17
2018-11-03T12:28:12.207Z,32.90
2018-11-03T12:30:42.504Z,38.27
2018-11-03T12:33:10.746Z,34.40
2018-11-03T12:35:38.904Z,31.70
2018-11-03T12:38:07.147Z,33.67
2018-11-03T12:40:35.339Z,36.27
2018-11-03T12:43:03.499Z,35.47
2018-11-03T12:45:31.660Z,32.20
2018-11-03T12:47:59.845Z,29.87
2018-11-03T12:50:28.040Z,30.23
2018-11-03T12:52:56.209Z,37.13
2018-11-03T12:55:24.475Z,36.50
2018-11-03T12:57:52.605Z,36.47
2018-11-03T13:00:20.879Z,40.63
2018-11-03T13:02:49.695Z,41.50
2018-11-03T13:05:18.029Z,40.27
2018-11-03T13:07:46.458Z,45.70
2018-11-03T13:10:14.661Z,49.07
2018-11-03T13:12:43.223Z,40.63
2018-11-03T13:15:12.565Z,37.53
2018-11-03T13:17:40.802Z,38.53
2018-11-03T13:20:11.731Z,43.70
2018-11-03T13:22:40.263Z,42.33
2018-11-03T13:25:09.005Z,49.37
2018-11-03T13:27:37.345Z,51.47
2018-11-03T13:30:08.201Z,41.23
2018-11-03T13:32:36.342Z,45.53
2018-11-03T13:35:05.467Z,39.43
2018-11-03T13:37:33.568Z,45.30
2018-11-03T13:40:01.735Z,46.67
2018-11-03T13:42:29.909Z,49.00
2018-11-03T13:44:58.101Z,40.40
2018-11-03T13:47:26.335Z,40.97
2018-11-03T13:49:54.471Z,43.53
2018-11-03T13:52:22.387Z,45.53
2018-11-03T13:54:50.368Z,40.90
2018-11-03T13:57:18.520Z,42.97
2018-11-03T13:59:46.758Z,44.87
2018-11-03T14:02:14.931Z,46.00
2018-11-03T14:04:44.224Z,51.07
2018-11-03T14:07:12.396Z,47.13
2018-11-03T14:09:40.627Z,47.83
2018-11-03T14:12:08.779Z,53.13
2018-11-03T14:14:36.972Z,55.23
2018-11-03T14:17:05.226Z,47.87
2018-11-03T14:19:33.349Z,47.27
2018-11-03T14:22:01.549Z,45.10
2018-11-03T14:24:29.721Z,47.70
2018-11-03T14:26:57.903Z,43.43
2018-11-03T14:29:27.167Z,42.30
2018-11-03T14:31:55.402Z,49.03
2018-11-03T14:34:23.562Z,46.60
2018-11-03T14:36:51.791Z,50.03
2018-11-03T14:39:19.976Z,40.90
2018-11-03T14:41:48.152Z,48.17
2018-11-03T14:44:16.311Z,44.80
2018-11-03T14:46:44.593Z,55.07
2018-11-03T14:49:12.831Z,51.93
2018-11-03T14:51:41.060Z,44.87
2018-11-03T14:54:09.306Z,41.40
2018-11-03T14:56:37.507Z,44.03
2018-11-03T14:59:05.702Z,48.33
2018-11-03T15:01:33.879Z,51.47
2018-11-03T15:04:02.056Z,54.73
2018-11-03T15:06:30.284Z,66.37
2018-11-03T15:08:58.476Z,55.53
2018-11-03T15:11:26.681Z,51.30
2018-11-03T15:13:55.028Z,53.07
2018-11-03T15:16:23.084Z,57.07
2018-11-03T15:18:51.287Z,51.30
2018-11-03T15:21:19.490Z,48.27
2018-11-03T15:23:48.724Z,44.73
2018-11-03T15:28:51.442Z,48.83
2018-11-03T15:31:19.603Z,57.20
2018-11-03T15:33:47.762Z,50.47
2018-11-03T15:36:15.972Z,50.33
2018-11-03T15:38:44.270Z,52.87
2018-11-03T15:41:12.555Z,52.40
2018-11-03T15:43:40.692Z,54.33
2018-11-03T15:46:08.870Z,55.40
2018-11-03T15:48:37.033Z,54.97
2018-11-03T15:51:05.225Z,52.30
2018-11-03T15:53:33.404Z,58.60
2018-11-03T15:56:01.585Z,55.40
2018-11-03T15:58:29.771Z,57.90
2018-11-03T16:00:57.951Z,51.43
2018-11-03T16:03:26.171Z,66.33
2018-11-03T16:05:54.347Z,68.83
2018-11-03T16:08:22.564Z,61.07
2018-11-03T16:10:56.257Z,61.07
2018-11-03T16:13:24.416Z,70.60
2018-11-03T16:15:52.636Z,60.57
2018-11-03T16:18:20.809Z,66.90
2018-11-03T16:20:48.990Z,68.83
2018-11-03T16:23:17.155Z,74.27
2018-11-03T16:25:45.401Z,65.53
2018-11-03T16:28:13.573Z,70.13
2018-11-03T16:30:41.714Z,68.30
2018-11-03T16:33:10.008Z,65.53
2018-11-03T16:35:38.356Z,76.43
2018-11-03T16:38:06.407Z,77.77
2018-11-03T16:40:34.562Z,68.93
2018-11-03T16:43:02.735Z,71.97
2018-11-03T16:45:30.937Z,70.10
2018-11-03T16:47:59.228Z,73.50
2018-11-03T16:50:27.391Z,71.93
2018-11-03T16:52:55.544Z,73.13
2018-11-03T16:55:23.819Z,65.00
2018-11-03T16:57:51.945Z,80.37
2018-11-03T17:00:20.116Z,68.67
2018-11-03T17:02:48.370Z,75.03
2018-11-03T17:05:16.554Z,79.73
2018-11-03T17:07:44.728Z,83.13
2018-11-03T17:10:14.231Z,76.10
2018-11-03T17:12:44.022Z,83.33
2018-11-03T17:15:12.702Z,70.63
2018-11-03T17:17:40.942Z,78.87
2018-11-03T17:20:09.574Z,80.87
2018-11-03T17:22:37.822Z,82.47
2018-11-03T17:25:06.855Z,79.70
2018-11-03T17:27:35.023Z,87.67
2018-11-03T17:30:03.209Z,84.37
2018-11-03T17:32:31.414Z,80.60
2018-11-03T17:34:59.564Z,93.37
2018-11-03T17:37:27.714Z,82.90
2018-11-03T17:39:55.900Z,83.97
2018-11-03T17:42:24.059Z,83.37
2018-11-03T17:44:52.223Z,91.27
2018-11-03T17:47:20.400Z,98.50
2018-11-03T17:49:48.535Z,79.33
2018-11-03T17:52:17.076Z,97.53
2018-11-03T17:54:45.242Z,85.27
2018-11-03T17:57:13.435Z,66.23
2018-11-03T17:59:41.626Z,72.13
2018-11-03T18:02:09.784Z,78.93
2018-11-03T18:04:37.959Z,89.73
2018-11-03T18:07:06.160Z,117.97
2018-11-03T18:09:34.399Z,85.13
2018-11-03T18:12:02.679Z,84.50
2018-11-03T18:14:30.876Z,96.10
2018-11-03T18:16:59.071Z,100.77
2018-11-03T18:19:27.331Z,84.13
2018-11-03T18:21:55.497Z,110.03
2018-11-03T18:24:23.657Z,89.30
2018-11-03T18:26:51.831Z,88.77
2018-11-03T18:29:19.981Z,96.50
2018-11-03T18:31:48.144Z,99.67
2018-11-03T18:34:16.355Z,98.00
2018-11-03T18:36:44.459Z,88.53
2018-11-03T18:39:12.622Z,85.30
2018-11-03T18:41:40.843Z,80.90
2018-11-03T18:44:09.157Z,78.37
2018-11-03T18:46:37.532Z,83.27
2018-11-03T18:49:05.809Z,73.57
2018-11-03T18:51:33.959Z,77.10
2018-11-03T18:54:02.143Z,72.00
2018-11-03T18:56:30.312Z,97.77
2018-11-03T18:58:58.508Z,120.47
2018-11-03T19:01:26.744Z,173.70
2018-11-03T19:03:54.957Z,201.17
2018-11-03T19:06:23.734Z,223.70
2018-11-03T19:08:51.915Z,225.40
2018-11-03T19:13:54.688Z,90.10
2018-11-03T19:16:22.883Z,138.83
2018-11-03T19:18:51.063Z,104.87
2018-11-03T19:21:19.241Z,96.33
2018-11-03T19:23:47.568Z,85.60
2018-11-03T19:26:15.638Z,79.67
2018-11-03T19:28:43.798Z,70.60
2018-11-03T19:31:12.013Z,70.10
2018-11-03T19:33:40.177Z,71.37
2018-11-03T19:36:08.378Z,68.80
2018-11-03T19:38:36.579Z,90.67
2018-11-03T19:41:04.745Z,117.50
2018-11-03T19:43:33.416Z,109.93
2018-11-03T19:46:01.584Z,71.60
2018-11-03T19:48:29.784Z,87.03
2018-11-03T19:50:58.803Z,82.10
2018-11-03T19:53:26.964Z,96.77
2018-11-03T19:55:55.222Z,97.77
2018-11-03T19:58:23.391Z,103.87
2018-11-03T20:00:51.611Z,87.60
2018-11-03T20:03:19.771Z,90.60
2018-11-03T20:05:47.908Z,80.70
2018-11-03T20:08:16.213Z,109.77
2018-11-03T20:10:44.341Z,85.57
2018-11-03T20:13:12.621Z,81.07
2018-11-03T20:15:42.798Z,73.47
2018-11-03T20:18:10.980Z,81.37
2018-11-03T20:20:39.137Z,98.93
2018-11-03T20:23:07.316Z,86.60
2018-11-03T20:25:35.504Z,93.30
2018-11-03T20:28:03.676Z,84.37
2018-11-03T20:30:31.829Z,92.73
2018-11-03T20:33:00.020Z,77.73
2018-11-03T20:35:28.223Z,81.40
2018-11-03T20:37:56.392Z,90.37
2018-11-03T20:40:24.541Z,103.17
2018-11-03T20:42:52.691Z,95.60
2018-11-03T20:45:20.864Z,85.53
2018-11-03T20:47:49.015Z,95.67
2018-11-03T20:50:17.180Z,107.10
2018-11-03T20:52:45.340Z,114.17
2018-11-03T20:55:13.685Z,97.17
2018-11-03T20:57:42.071Z,99.33
2018-11-03T21:00:12.422Z,94.97
2018-11-03T21:02:40.578Z,100.63
2018-11-03T21:05:09.909Z,118.10
2018-11-03T21:07:38.430Z,108.70
2018-11-03T21:10:06.638Z,129.30
2018-11-03T21:12:34.872Z,119.13
2018-11-03T21:15:03.068Z,107.70
2018-11-03T21:17:31.056Z,108.80
2018-11-03T21:19:59.300Z,102.43
2018-11-03T21:22:27.484Z,106.27
2018-11-03T21:24:55.712Z,93.13
2018-11-03T21:27:23.885Z,95.27
2018-11-03T21:29:52.099Z,104.53
2018-11-03T21:32:20.339Z,127.50
2018-11-03T21:34:48.379Z,106.57
2018-11-03T21:37:16.564Z,110.87
2018-11-03T21:39:44.738Z,119.23
2018-11-03T21:42:12.904Z,114.67
2018-11-03T21:44:42.100Z,111.57
2018-11-03T21:47:10.332Z,106.70
2018-11-03T21:49:38.496Z,112.87
2018-11-03T21:52:06.664Z,99.90
2018-11-03T21:54:35.242Z,131.80
2018-11-03T21:57:03.507Z,105.17
2018-11-03T21:59:31.713Z,107.50
2018-11-03T22:01:59.866Z,112.67
2018-11-03T22:04:28.060Z,108.57
2018-11-03T22:06:56.204Z,115.40
2018-11-03T22:09:24.367Z,115.40
2018-11-03T22:11:52.526Z,112.87
2018-11-03T22:14:20.757Z,114.13
2018-11-03T22:16:48.910Z,104.93
2018-11-03T22:19:17.112Z,122.07
2018-11-03T22:21:45.327Z,109.00
2018-11-03T22:24:13.466Z,105.97
2018-11-03T22:26:41.649Z,94.13
2018-11-03T22:29:09.832Z,105.00
2018-11-03T22:31:37.996Z,95.07
2018-11-03T22:34:06.560Z,103.50
2018-11-03T22:36:34.719Z,99.17
2018-11-03T22:39:02.964Z,97.30
2018-11-03T22:41:31.159Z,94.17
2018-11-03T22:43:59.319Z,89.37
2018-11-03T22:46:27.512Z,99.47
2018-11-03T22:48:55.694Z,92.07
2018-11-03T22:51:23.894Z,93.60
2018-11-03T22:53:52.101Z,89.03
2018-11-03T22:56:20.293Z,91.73
2018-11-03T22:58:48.458Z,90.40
2018-11-03T23:01:16.676Z,98.53
2018-11-03T23:03:44.880Z,97.83
2018-11-03T23:06:13.153Z,89.03
2018-11-03T23:08:41.302Z,92.70
2018-11-03T23:11:09.509Z,91.73
2018-11-03T23:13:37.693Z,92.17
2018-11-03T23:16:05.905Z,95.63
2018-11-03T23:18:34.097Z,84.87
2018-11-03T23:21:02.313Z,93.97
2018-11-03T23:23:30.508Z,81.13
2018-11-03T23:25:58.671Z,83.23
2018-11-03T23:28:26.837Z,88.67
2018-11-03T23:30:55.118Z,99.30
2018-11-03T23:33:23.330Z,97.47
2018-11-03T23:35:51.495Z,90.60
2018-11-03T23:38:19.696Z,98.23
2018-11-03T23:40:47.839Z,101.97
2018-11-03T23:43:16.043Z,91.27
2018-11-03T23:45:44.186Z,84.30
2018-11-03T23:48:12.339Z,103.80
2018-11-03T23:50:40.499Z,95.87
2018-11-03T23:53:10.730Z,89.33
2018-11-03T23:55:39.903Z,89.57
2018-11-03T23:58:08.072Z,92.60
